createdAt,value
2022-11-24T00:01:05.395Z,8.90
2022-11-24T00:03:32.248Z,8.90
2022-11-24T00:06:04.524Z,8.90
2022-11-24T00:08:31.302Z,8.90
2022-11-24T00:11:06.419Z,8.70
2022-11-24T00:13:34.115Z,8.80
2022-11-24T00:16:07.178Z,8.80
2022-11-24T00:18:33.958Z,8.80
2022-11-24T00:21:00.674Z,8.70
2022-11-24T00:23:27.578Z,8.80
2022-11-24T00:25:54.359Z,8.80
2022-11-24T00:28:21.125Z,8.60
2022-11-24T00:30:47.855Z,8.40
2022-11-24T00:33:14.666Z,8.50
2022-11-24T00:35:41.422Z,8.50
2022-11-24T00:38:08.141Z,8.40
2022-11-24T00:40:35.178Z,8.60
2022-11-24T00:43:02.030Z,8.50
2022-11-24T00:45:28.806Z,8.50
2022-11-24T00:47:55.492Z,8.70
2022-11-24T00:50:22.628Z,8.50
2022-11-24T00:52:49.374Z,8.60
2022-11-24T00:55:16.222Z,8.30
2022-11-24T00:57:42.932Z,8.40
2022-11-24T01:00:10.015Z,8.40
2022-11-24T01:02:36.720Z,8.50
2022-11-24T01:05:03.740Z,8.50
2022-11-24T01:07:31.164Z,8.30
2022-11-24T01:09:57.960Z,8.30
2022-11-24T01:12:24.682Z,8.40
2022-11-24T01:14:51.557Z,8.30
2022-11-24T01:17:18.310Z,8.40
2022-11-24T01:19:47.182Z,8.40
2022-11-24T01:22:14.073Z,8.60
2022-11-24T01:24:41.182Z,8.60
2022-11-24T01:27:07.877Z,8.60
2022-11-24T01:29:34.555Z,8.60
2022-11-24T01:32:01.366Z,8.50
2022-11-24T01:34:28.201Z,8.30
2022-11-24T01:36:54.886Z,8.30
2022-11-24T01:39:21.621Z,8.40
2022-11-24T01:41:48.323Z,8.40
2022-11-24T01:44:24.626Z,8.40
2022-11-24T01:47:17.234Z,8.40
2022-11-24T01:49:51.404Z,8.40
2022-11-24T01:52:49.986Z,8.40
2022-11-24T01:55:21.752Z,8.20
2022-11-24T01:57:55.448Z,8.20
2022-11-24T02:00:22.461Z,8.10
2022-11-24T02:02:49.548Z,8.10
2022-11-24T02:05:28.307Z,8.30
2022-11-24T02:07:59.352Z,8.20
2022-11-24T02:10:26.382Z,8.20
2022-11-24T02:12:56.206Z,8.20
2022-11-24T02:15:23.389Z,8.20
2022-11-24T02:17:50.031Z,7.90
2022-11-24T02:20:17.899Z,7.80
2022-11-24T02:23:35.315Z,7.70
2022-11-24T02:26:25.817Z,7.90
2022-11-24T02:28:52.916Z,7.90
2022-11-24T02:31:19.722Z,7.70
2022-11-24T02:33:48.694Z,7.70
2022-11-24T02:36:15.862Z,7.70
2022-11-24T02:38:42.462Z,7.60
2022-11-24T02:41:13.373Z,7.80
2022-11-24T02:43:44.820Z,7.80
2022-11-24T02:46:11.700Z,7.90
2022-11-24T02:48:39.299Z,7.60
2022-11-24T02:51:06.487Z,0.00
2022-11-24T02:53:33.365Z,7.80
2022-11-24T02:56:00.089Z,8.00
2022-11-24T02:58:27.102Z,8.00
2022-11-24T03:00:57.327Z,8.00
2022-11-24T03:03:24.896Z,7.90
2022-11-24T03:05:51.855Z,7.90
2022-11-24T03:08:18.739Z,8.00
2022-11-24T03:10:45.705Z,7.90
2022-11-24T03:13:12.489Z,7.90
2022-11-24T03:15:39.376Z,7.70
2022-11-24T03:18:06.492Z,7.90
2022-11-24T03:20:33.958Z,7.90
2022-11-24T03:23:00.686Z,7.80
2022-11-24T03:25:27.440Z,7.70
2022-11-24T03:27:57.383Z,7.80
2022-11-24T03:30:24.162Z,7.70
2022-11-24T03:32:54.038Z,7.70
2022-11-24T03:35:21.324Z,7.80
2022-11-24T03:37:48.350Z,7.90
2022-11-24T03:40:15.694Z,7.90
2022-11-24T03:42:42.477Z,7.90
2022-11-24T03:45:37.923Z,7.70
2022-11-24T03:47:56.178Z,7.90
2022-11-24T03:50:22.899Z,7.90
2022-11-24T03:52:49.617Z,7.90
2022-11-24T03:55:16.664Z,8.00
2022-11-24T03:57:43.371Z,7.90
2022-11-24T04:00:11.228Z,7.80
2022-11-24T04:02:38.535Z,7.80
2022-11-24T04:05:06.345Z,7.70
2022-11-24T04:07:33.442Z,7.60
2022-11-24T04:10:00.052Z,7.90
2022-11-24T04:12:45.013Z,7.60
2022-11-24T04:15:15.173Z,7.80
2022-11-24T04:17:42.471Z,7.70
2022-11-24T04:20:10.584Z,7.80
2022-11-24T04:22:37.556Z,7.70
2022-11-24T04:25:05.180Z,7.80
2022-11-24T04:27:35.841Z,8.00
2022-11-24T04:30:03.630Z,7.80
2022-11-24T04:32:30.501Z,7.80
2022-11-24T04:34:57.181Z,7.90
2022-11-24T04:37:24.008Z,7.70
2022-11-24T04:39:50.707Z,7.90
2022-11-24T04:42:17.530Z,7.80
2022-11-24T04:44:44.406Z,7.90
2022-11-24T04:47:20.005Z,7.80
2022-11-24T04:49:50.259Z,7.80
2022-11-24T04:52:19.528Z,7.80
2022-11-24T04:54:46.913Z,7.70
2022-11-24T04:57:19.670Z,7.70
2022-11-24T04:59:46.449Z,7.80
2022-11-24T05:02:13.482Z,7.70
2022-11-24T05:04:40.532Z,7.80
2022-11-24T05:07:07.716Z,7.70
2022-11-24T05:09:58.099Z,7.70
2022-11-24T05:12:21.303Z,7.70
2022-11-24T05:14:48.063Z,7.70
2022-11-24T05:17:14.814Z,7.70
2022-11-24T05:19:41.572Z,7.60
2022-11-24T05:22:08.303Z,7.80
2022-11-24T05:24:35.304Z,7.70
2022-11-24T05:27:02.263Z,7.70
2022-11-24T05:29:28.948Z,7.70
2022-11-24T05:31:55.732Z,7.60
2022-11-24T05:34:22.796Z,7.50
2022-11-24T05:36:56.226Z,7.70
2022-11-24T05:39:22.916Z,7.60
2022-11-24T05:41:49.619Z,7.60
2022-11-24T05:44:16.377Z,7.50
2022-11-24T05:46:43.133Z,7.60
2022-11-24T05:49:10.011Z,7.50
2022-11-24T05:51:37.023Z,7.40
2022-11-24T05:54:04.002Z,7.60
2022-11-24T05:56:30.881Z,7.60
2022-11-24T05:58:57.656Z,7.50
2022-11-24T06:01:24.523Z,7.40
2022-11-24T06:03:51.328Z,7.40
2022-11-24T06:06:18.087Z,7.30
2022-11-24T06:08:44.870Z,7.40
2022-11-24T06:11:17.741Z,7.20
2022-11-24T06:13:45.926Z,7.20
2022-11-24T06:16:13.323Z,7.20
2022-11-24T06:18:40.510Z,6.90
2022-11-24T06:21:11.600Z,6.90
2022-11-24T06:23:39.336Z,6.90
2022-11-24T06:26:06.549Z,6.60
2022-11-24T06:28:33.225Z,6.70
2022-11-24T06:31:04.910Z,6.90
2022-11-24T06:33:36.134Z,6.80
2022-11-24T06:36:07.766Z,6.60
2022-11-24T06:38:36.013Z,6.80
2022-11-24T06:41:07.205Z,6.50
2022-11-24T06:43:35.033Z,6.70
2022-11-24T06:46:02.324Z,6.70
2022-11-24T06:48:29.678Z,6.60
2022-11-24T06:51:01.002Z,0.00
2022-11-24T06:53:31.025Z,6.80
2022-11-24T06:55:59.821Z,6.80
2022-11-24T06:58:26.805Z,7.20
2022-11-24T07:00:54.074Z,7.20
2022-11-24T07:03:21.016Z,7.20
2022-11-24T07:05:47.960Z,7.10
2022-11-24T07:08:17.907Z,7.30
2022-11-24T07:10:45.486Z,7.40
2022-11-24T07:13:12.256Z,7.50
2022-11-24T07:15:39.030Z,7.50
2022-11-24T07:18:05.855Z,7.60
2022-11-24T07:20:32.605Z,7.70
2022-11-24T07:22:59.643Z,7.60
2022-11-24T07:25:26.541Z,7.60
2022-11-24T07:28:00.204Z,7.60
2022-11-24T07:30:28.423Z,7.70
2022-11-24T07:33:02.747Z,7.80
2022-11-24T07:35:30.489Z,7.80
2022-11-24T07:37:58.391Z,7.80
2022-11-24T07:40:26.961Z,7.80
2022-11-24T07:42:54.286Z,7.90
2022-11-24T07:45:21.181Z,8.00
2022-11-24T07:47:47.940Z,8.10
2022-11-24T07:50:15.014Z,8.10
2022-11-24T07:52:41.702Z,8.20
2022-11-24T07:55:09.046Z,8.20
2022-11-24T07:57:35.949Z,8.20
2022-11-24T08:00:05.691Z,8.00
2022-11-24T08:02:33.178Z,8.10
2022-11-24T08:04:59.949Z,8.30
2022-11-24T08:07:26.775Z,8.30
2022-11-24T08:09:53.858Z,8.30
2022-11-24T08:12:23.626Z,8.30
2022-11-24T08:14:51.127Z,8.30
2022-11-24T08:17:18.536Z,8.30
2022-11-24T08:19:45.717Z,8.30
2022-11-24T08:22:12.598Z,8.20
2022-11-24T08:24:46.270Z,8.20
2022-11-24T08:27:13.936Z,8.00
2022-11-24T08:29:40.690Z,8.10
2022-11-24T08:32:08.236Z,8.00
2022-11-24T08:34:35.371Z,8.20
2022-11-24T08:37:06.941Z,7.90
2022-11-24T08:39:34.141Z,7.80
2022-11-24T08:42:00.944Z,7.80
2022-11-24T08:44:28.824Z,8.00
2022-11-24T08:46:55.910Z,8.10
2022-11-24T08:49:22.716Z,8.20
2022-11-24T08:51:51.317Z,8.30
2022-11-24T08:54:18.864Z,8.30
2022-11-24T08:56:46.437Z,8.60
2022-11-24T08:59:14.547Z,8.60
2022-11-24T09:01:42.084Z,8.80
2022-11-24T09:04:08.869Z,8.70
2022-11-24T09:06:35.734Z,8.90
2022-11-24T09:09:03.023Z,8.90
2022-11-24T09:11:30.694Z,9.00
2022-11-24T09:13:57.773Z,9.10
2022-11-24T09:16:26.355Z,9.10
2022-11-24T09:19:01.232Z,9.10
2022-11-24T09:21:29.412Z,9.20
2022-11-24T09:23:57.242Z,9.20
2022-11-24T09:26:26.882Z,9.30
2022-11-24T09:28:55.162Z,9.40
2022-11-24T09:31:24.509Z,9.50
2022-11-24T09:33:52.403Z,9.60
2022-11-24T09:36:19.923Z,9.60
2022-11-24T09:38:46.981Z,9.70
2022-11-24T09:41:44.817Z,9.80
2022-11-24T09:44:46.125Z,9.90
2022-11-24T09:47:34.086Z,9.90
2022-11-24T09:50:17.755Z,10.00
2022-11-24T09:53:03.835Z,10.10
2022-11-24T09:55:49.793Z,10.10
2022-11-24T09:58:50.937Z,10.20
2022-11-24T10:01:45.354Z,10.30
2022-11-24T10:04:20.949Z,10.30
2022-11-24T10:07:13.544Z,10.40
2022-11-24T10:10:14.111Z,10.40
2022-11-24T10:13:05.284Z,10.50
2022-11-24T10:15:42.444Z,10.60
2022-11-24T10:18:16.692Z,10.60
2022-11-24T10:21:18.190Z,10.60
2022-11-24T10:24:06.057Z,10.80
2022-11-24T10:26:43.957Z,10.80
2022-11-24T10:29:19.206Z,10.90
2022-11-24T10:31:47.729Z,10.80
2022-11-24T10:34:18.015Z,11.00
2022-11-24T10:36:52.470Z,11.10
2022-11-24T10:39:42.262Z,11.10
2022-11-24T10:42:20.627Z,11.10
2022-11-24T10:45:10.123Z,11.20
2022-11-24T10:47:37.199Z,11.30
2022-11-24T10:50:16.048Z,11.40
2022-11-24T10:52:47.863Z,11.40
2022-11-24T10:55:14.730Z,11.50
2022-11-24T10:57:41.564Z,11.60
2022-11-24T11:00:20.413Z,11.60
2022-11-24T11:02:49.892Z,11.60
2022-11-24T11:06:01.032Z,11.70
2022-11-24T11:08:33.888Z,11.80
2022-11-24T11:11:12.823Z,12.00
2022-11-24T11:14:03.394Z,11.90
2022-11-24T11:16:35.998Z,11.90
2022-11-24T11:19:20.232Z,12.00
2022-11-24T11:22:06.391Z,12.00
2022-11-24T11:24:34.323Z,12.10
2022-11-24T11:27:04.508Z,12.00
2022-11-24T11:35:13.599Z,12.40
2022-11-24T11:37:40.979Z,12.60
2022-11-24T11:40:17.753Z,12.60
2022-11-24T11:43:20.141Z,12.60
2022-11-24T11:45:50.821Z,12.70
2022-11-24T11:48:33.721Z,12.80
2022-11-24T11:51:23.951Z,12.80
2022-11-24T11:54:29.363Z,12.80
2022-11-24T11:57:32.105Z,12.80
2022-11-24T12:00:22.077Z,12.90
2022-11-24T12:03:30.545Z,12.90
2022-11-24T12:06:15.317Z,13.00
2022-11-24T12:09:20.221Z,13.10
2022-11-24T12:12:18.385Z,13.20
2022-11-24T12:15:09.128Z,13.20
2022-11-24T12:17:46.543Z,13.20
2022-11-24T12:20:28.436Z,13.40
2022-11-24T12:23:01.305Z,13.40
2022-11-24T12:25:34.867Z,13.50
2022-11-24T12:28:26.252Z,13.50
2022-11-24T12:31:07.255Z,13.60
2022-11-24T12:34:04.268Z,13.60
2022-11-24T12:37:08.587Z,13.70
2022-11-24T12:39:39.631Z,13.70
2022-11-24T12:42:42.987Z,13.80
2022-11-24T12:45:09.684Z,13.80
2022-11-24T12:48:03.723Z,13.80
2022-11-24T12:50:34.892Z,13.90
2022-11-24T12:53:18.337Z,13.90
2022-11-24T12:55:46.190Z,13.80
2022-11-24T12:58:27.769Z,14.00
2022-11-24T13:01:59.099Z,13.90
2022-11-24T13:04:36.428Z,13.90
2022-11-24T13:07:12.412Z,13.90
2022-11-24T13:10:17.482Z,13.90
2022-11-24T13:13:08.169Z,13.80
2022-11-24T13:19:25.637Z,13.90
2022-11-24T13:22:07.339Z,13.90
2022-11-24T13:24:39.251Z,14.00
2022-11-24T13:27:15.436Z,13.90
2022-11-24T13:29:47.184Z,13.80
2022-11-24T13:32:17.682Z,13.90
2022-11-24T13:34:45.715Z,13.90
2022-11-24T13:37:34.922Z,13.90
2022-11-24T13:40:22.916Z,14.00
2022-11-24T13:43:00.393Z,13.90
2022-11-24T13:45:40.187Z,13.90
2022-11-24T13:48:19.741Z,13.90
2022-11-24T13:50:49.999Z,13.90
2022-11-24T13:53:38.576Z,13.90
2022-11-24T13:56:15.037Z,13.80
2022-11-24T13:58:42.938Z,13.80
2022-11-24T14:01:30.347Z,13.70
2022-11-24T14:04:29.989Z,13.70
2022-11-24T14:06:53.252Z,13.60
2022-11-24T14:09:49.209Z,13.60
2022-11-24T14:12:20.817Z,13.50
2022-11-24T14:14:52.469Z,13.50
2022-11-24T14:17:28.550Z,13.50
2022-11-24T14:19:57.170Z,13.40
2022-11-24T14:22:26.700Z,13.40
2022-11-24T14:24:55.848Z,13.30
2022-11-24T14:27:34.115Z,13.30
2022-11-24T14:30:04.801Z,13.20
2022-11-24T14:32:31.721Z,13.20
2022-11-24T14:34:58.513Z,13.20
2022-11-24T14:37:25.476Z,13.10
2022-11-24T14:39:52.261Z,13.10
2022-11-24T14:42:27.566Z,13.10
2022-11-24T14:45:00.696Z,13.10
2022-11-24T14:47:32.911Z,13.00
2022-11-24T14:50:13.350Z,0.00
2022-11-24T14:52:55.591Z,13.00
2022-11-24T14:55:30.820Z,12.90
2022-11-24T14:57:58.548Z,12.90
2022-11-24T15:00:27.262Z,12.90
2022-11-24T15:02:55.254Z,13.00
2022-11-24T15:05:26.135Z,13.00
2022-11-24T15:08:02.308Z,12.90
2022-11-24T15:10:36.046Z,12.90
2022-11-24T15:13:06.767Z,12.90
2022-11-24T15:15:38.526Z,12.80
2022-11-24T15:18:06.653Z,12.80
2022-11-24T15:20:36.895Z,12.80
2022-11-24T15:23:28.582Z,12.80
2022-11-24T15:26:18.375Z,12.80
2022-11-24T15:28:48.191Z,12.70
2022-11-24T15:31:15.221Z,12.70
2022-11-24T15:33:42.400Z,0.00
2022-11-24T15:36:09.292Z,12.70
2022-11-24T15:38:35.989Z,12.80
2022-11-24T15:41:12.794Z,12.70
2022-11-24T15:43:41.838Z,12.60
2022-11-24T15:46:10.248Z,12.50
2022-11-24T15:48:37.143Z,12.50
2022-11-24T15:51:07.046Z,12.40
2022-11-24T15:53:40.696Z,12.40
2022-11-24T15:56:12.484Z,12.10
2022-11-24T15:58:39.249Z,12.30
2022-11-24T16:01:06.255Z,12.20
2022-11-24T16:03:49.259Z,12.00
2022-11-24T16:06:24.122Z,12.00
2022-11-24T16:08:52.938Z,11.90
2022-11-24T16:11:19.802Z,11.90
2022-11-24T16:13:52.028Z,11.80
2022-11-24T16:16:20.448Z,11.90
2022-11-24T16:18:47.300Z,11.90
2022-11-24T16:21:14.090Z,11.90
2022-11-24T16:23:40.908Z,11.90
2022-11-24T16:26:07.709Z,11.80
2022-11-24T16:28:34.973Z,11.80
2022-11-24T16:31:01.785Z,11.70
2022-11-24T16:33:30.191Z,11.70
2022-11-24T16:35:57.214Z,11.70
2022-11-24T16:38:24.261Z,11.60
2022-11-24T16:40:52.616Z,11.60
2022-11-24T16:43:19.763Z,11.50
2022-11-24T16:45:50.119Z,11.60
2022-11-24T16:48:16.939Z,11.50
2022-11-24T16:50:43.878Z,11.40
2022-11-24T16:53:10.688Z,11.30
2022-11-24T16:55:37.412Z,11.30
2022-11-24T16:58:05.105Z,11.30
2022-11-24T17:00:31.985Z,11.30
2022-11-24T17:02:58.725Z,11.30
2022-11-24T17:05:25.746Z,11.30
2022-11-24T17:07:52.668Z,11.30
2022-11-24T17:10:19.606Z,11.30
2022-11-24T17:12:46.301Z,11.20
2022-11-24T17:18:23.383Z,11.10
2022-11-24T17:20:46.648Z,11.10
2022-11-24T17:23:13.349Z,11.10
2022-11-24T17:25:40.194Z,11.10
2022-11-24T17:28:07.000Z,11.00
2022-11-24T17:30:33.758Z,11.00
2022-11-24T17:33:00.520Z,11.00
2022-11-24T17:35:27.225Z,10.90
2022-11-24T17:37:53.993Z,10.80
2022-11-24T17:40:28.275Z,10.90
2022-11-24T17:43:01.909Z,11.00
2022-11-24T17:45:30.432Z,10.90
2022-11-24T17:47:59.900Z,10.90
2022-11-24T17:50:26.927Z,10.80
2022-11-24T17:52:54.257Z,10.90
2022-11-24T17:55:21.764Z,10.80
2022-11-24T17:57:48.534Z,10.80
2022-11-24T18:00:15.514Z,10.80
2022-11-24T18:02:42.437Z,10.70
2022-11-24T18:05:09.136Z,10.70
2022-11-24T18:07:36.976Z,10.80
2022-11-24T18:10:04.492Z,10.70
2022-11-24T18:12:32.245Z,10.80
2022-11-24T18:14:59.160Z,10.70
2022-11-24T18:17:25.864Z,10.70
2022-11-24T18:19:52.625Z,10.60
2022-11-24T18:22:36.664Z,10.60
2022-11-24T18:25:07.018Z,10.60
2022-11-24T18:27:33.751Z,10.60
2022-11-24T18:30:00.612Z,10.50
2022-11-24T18:32:27.350Z,10.40
2022-11-24T18:34:54.176Z,10.40
2022-11-24T18:37:20.970Z,10.50
2022-11-24T18:39:47.660Z,10.40
2022-11-24T18:42:14.454Z,10.50
2022-11-24T18:44:42.432Z,10.40
2022-11-24T18:47:09.229Z,10.40
2022-11-24T18:49:35.972Z,10.30
2022-11-24T18:52:02.699Z,10.20
2022-11-24T18:54:29.679Z,10.30
2022-11-24T18:57:00.301Z,10.30
2022-11-24T18:59:29.941Z,10.30
2022-11-24T19:01:57.967Z,10.20
2022-11-24T19:04:26.215Z,10.10
2022-11-24T19:06:52.955Z,10.10
2022-11-24T19:09:22.467Z,10.10
2022-11-24T19:11:49.283Z,0.00
2022-11-24T19:14:18.228Z,10.20
2022-11-24T19:16:47.598Z,10.10
2022-11-24T19:19:15.117Z,10.10
2022-11-24T19:21:41.922Z,10.10
2022-11-24T19:24:10.171Z,10.00
2022-11-24T19:26:38.213Z,10.00
2022-11-24T19:29:05.953Z,10.00
2022-11-24T19:31:33.470Z,10.00
2022-11-24T19:34:00.776Z,10.00
2022-11-24T19:36:27.478Z,9.80
2022-11-24T19:38:56.488Z,9.90
2022-11-24T19:41:29.637Z,10.00
2022-11-24T19:43:57.979Z,10.00
2022-11-24T19:46:27.351Z,9.90
2022-11-24T19:48:56.836Z,10.00
2022-11-24T19:51:26.498Z,9.80
2022-11-24T19:53:53.946Z,9.90
2022-11-24T19:56:23.137Z,9.90
2022-11-24T19:58:51.104Z,9.90
2022-11-24T20:01:19.903Z,9.90
2022-11-24T20:03:49.445Z,9.90
2022-11-24T20:06:16.383Z,9.90
2022-11-24T20:08:43.526Z,9.80
2022-11-24T20:11:14.712Z,9.70
2022-11-24T20:13:43.164Z,9.60
2022-11-24T20:16:15.525Z,9.40
2022-11-24T20:18:44.168Z,9.50
2022-11-24T20:21:10.808Z,9.50
2022-11-24T20:23:37.817Z,9.60
2022-11-24T20:26:23.454Z,9.70
2022-11-24T20:28:53.118Z,9.80
2022-11-24T20:31:22.852Z,9.70
2022-11-24T20:33:50.372Z,9.70
2022-11-24T20:36:19.302Z,9.50
2022-11-24T20:38:47.228Z,9.40
2022-11-24T20:41:15.534Z,9.30
2022-11-24T20:43:43.936Z,9.20
2022-11-24T20:46:25.971Z,9.10
2022-11-24T20:48:54.726Z,9.10
2022-11-24T20:51:24.028Z,9.10
2022-11-24T20:53:53.231Z,9.30
2022-11-24T20:56:25.913Z,9.30
2022-11-24T20:58:53.408Z,9.40
2022-11-24T21:01:24.155Z,9.50
2022-11-24T21:03:58.909Z,9.50
2022-11-24T21:06:28.028Z,9.60
2022-11-24T21:08:59.049Z,9.40
2022-11-24T21:11:28.903Z,9.50
2022-11-24T21:13:56.397Z,9.50
2022-11-24T21:16:31.843Z,9.40
2022-11-24T21:19:06.483Z,9.40
2022-11-24T21:21:36.130Z,9.30
2022-11-24T21:24:10.012Z,9.40
2022-11-24T21:26:38.499Z,9.20
2022-11-24T21:29:06.682Z,9.40
2022-11-24T21:31:37.333Z,9.40
2022-11-24T21:34:05.248Z,9.50
2022-11-24T21:36:34.097Z,9.40
2022-11-24T21:39:02.196Z,9.40
2022-11-24T21:41:32.215Z,9.50
2022-11-24T21:43:59.116Z,9.50
2022-11-24T21:46:25.917Z,9.40
2022-11-24T21:48:52.657Z,9.30
2022-11-24T21:51:20.913Z,9.30
2022-11-24T21:53:48.213Z,9.30
2022-11-24T21:56:22.066Z,9.20
2022-11-24T21:58:57.446Z,9.00
2022-11-24T22:01:27.918Z,9.00
2022-11-24T22:03:55.362Z,9.00
2022-11-24T22:06:22.177Z,8.90
2022-11-24T22:08:49.374Z,8.90
2022-11-24T22:11:17.587Z,8.70
2022-11-24T22:13:44.570Z,8.60
2022-11-24T22:16:17.316Z,8.50
2022-11-24T22:18:44.789Z,8.50
2022-11-24T22:21:14.506Z,8.50
2022-11-24T22:23:41.454Z,8.40
2022-11-24T22:26:15.582Z,8.40
2022-11-24T22:28:43.326Z,8.40
2022-11-24T22:31:16.069Z,8.50
2022-11-24T22:33:43.818Z,8.60
2022-11-24T22:36:12.045Z,8.80
2022-11-24T22:38:39.448Z,8.80
2022-11-24T22:41:14.038Z,8.90
2022-11-24T22:43:41.851Z,9.00
2022-11-24T22:46:13.203Z,9.00
2022-11-24T22:48:41.037Z,9.10
2022-11-24T22:51:10.644Z,9.20
2022-11-24T22:53:37.771Z,9.20
2022-11-24T22:56:11.064Z,9.20
2022-11-24T22:58:39.517Z,9.20
2022-11-24T23:01:19.104Z,9.20
2022-11-24T23:03:46.834Z,9.30
2022-11-24T23:06:15.892Z,9.20
2022-11-24T23:08:42.938Z,9.20
2022-11-24T23:11:10.715Z,9.30
2022-11-24T23:13:37.771Z,9.30
2022-11-24T23:16:12.402Z,9.30
2022-11-24T23:18:39.866Z,9.40
2022-11-24T23:21:16.907Z,9.30
2022-11-24T23:23:44.329Z,9.20
2022-11-24T23:26:20.767Z,9.30
2022-11-24T23:28:47.842Z,9.30
2022-11-24T23:31:16.271Z,9.30
2022-11-24T23:33:43.722Z,9.30
2022-11-24T23:36:13.373Z,9.20
2022-11-24T23:38:41.123Z,9.30
2022-11-24T23:41:20.429Z,9.20
2022-11-24T23:43:47.615Z,9.10
2022-11-24T23:46:22.986Z,9.00
2022-11-24T23:48:51.284Z,9.00
2022-11-24T23:51:22.156Z,9.00
2022-11-24T23:53:49.697Z,9.00
2022-11-24T23:56:21.918Z,9.00
2022-11-24T23:58:48.987Z,9.00
